This is the latest recevied weather packets stored in our database for station/object W5SDC. If no packets are shown the sender has not sent any weather packets the latest 10 day(s).
| Time | Temp. | Humidity | Pressure | Rain* | Wind** | Luminosity | Snow |
|---|---|---|---|---|---|---|---|
| 1777420229 | 30.56° C | 79% | 1010.4 hPa | 0 mm | - | - | - |
| 1777419917 | 31.11° C | 78% | 1010.5 hPa | 0 mm | - | - | - |
| 1777419350 | 31.11° C | 78% | 1010.5 hPa | 0 mm | - | - | - |
| 1777416322 | 30° C | 82% | 1010.9 hPa | 0 mm | - | - | - |
| 1777415463 | 28.89° C | 83% | 1011.2 hPa | 0 mm | - | - | - |
| 1777414231 | 29.44° C | 83% | 1011.7 hPa | 0 mm | - | - | - |
| 1777413919 | 28.89° C | 83% | 1011.7 hPa | 0 mm | - | - | - |
| 1777410917 | 29.44° C | 82% | 1012.3 hPa | 0 mm | - | - | - |
| 1777409724 | 29.44° C | 82% | 1012.4 hPa | 0 mm | - | - | - |
| 1777407028 | 28.89° C | 84% | 1013.3 hPa | 0 mm | - | - | - |
| 1777405818 | 28.33° C | 85% | 1013.6 hPa | 0 mm | - | - | - |
| 1777404625 | 27.78° C | 87% | 1013.9 hPa | 0 mm | - | - | - |
| 1777403121 | 27.22° C | 87% | 1013.8 hPa | 0 mm | - | - | - |
| 1777401929 | 27.22° C | 88% | 1014 hPa | 0 mm | - | - | - |
| 1777400719 | 27.22° C | 87% | 1014 hPa | 0 mm | - | - | - |
| 1777400132 | 27.22° C | 87% | 1013.9 hPa | 0 mm | - | - | - |
| 1777398628 | 27.22° C | 87% | 1013.7 hPa | 0 mm | - | - | - |
| 1777397749 | 27.22° C | 88% | 1013.7 hPa | 0 mm | - | - | - |
| 1777397417 | 26.67° C | 87% | 1013.7 hPa | 0 mm | - | - | - |
| 1777397124 | 27.22° C | 87% | 1013.5 hPa | 0 mm | - | - | - |
| 1777393218 | 26.67° C | 88% | 1013.8 hPa | 0 mm | - | - | - |
| 1777392651 | 26.67° C | 90% | 1013.9 hPa | 0 mm | - | - | - |
| 1777390248 | 25.56° C | 93% | 1013.8 hPa | 0 mm | - | - | - |
| 1777389623 | 25.56° C | 93% | 1013.9 hPa | 0 mm | - | - | - |
| 1777386633 | 25° C | 95% | 1013.8 hPa | 0 mm | - | - | - |
* Rain latest hour (hover to see other rain measurements)
** Current wind speed in m/s (hover to see current wind gust speed)